sensor_id;sensor_type;location;lat;lon;timestamp;temperature;humidity
12769;DHT22;6448;48.916;8.990;2023-06-14T00:00:01;24.40;30.60
12769;DHT22;6448;48.916;8.990;2023-06-14T00:01:05;24.30;30.60
12769;DHT22;6448;48.916;8.990;2023-06-14T00:02:07;24.40;30.70
12769;DHT22;6448;48.916;8.990;2023-06-14T00:03:09;24.30;30.70
12769;DHT22;6448;48.916;8.990;2023-06-14T00:04:13;24.30;30.80
12769;DHT22;6448;48.916;8.990;2023-06-14T00:05:17;24.30;30.80
12769;DHT22;6448;48.916;8.990;2023-06-14T00:06:19;24.30;30.80
12769;DHT22;6448;48.916;8.990;2023-06-14T00:07:33;24.30;30.80
12769;DHT22;6448;48.916;8.990;2023-06-14T00:08:35;24.10;30.80
12769;DHT22;6448;48.916;8.990;2023-06-14T00:09:36;24.20;30.90
12769;DHT22;6448;48.916;8.990;2023-06-14T00:10:38;24.20;30.90
12769;DHT22;6448;48.916;8.990;2023-06-14T00:11:41;24.20;31.00
12769;DHT22;6448;48.916;8.990;2023-06-14T00:12:43;24.10;31.00
12769;DHT22;6448;48.916;8.990;2023-06-14T00:13:44;24.10;31.20
12769;DHT22;6448;48.916;8.990;2023-06-14T00:14:46;24.10;31.20
12769;DHT22;6448;48.916;8.990;2023-06-14T00:15:47;24.10;31.20
12769;DHT22;6448;48.916;8.990;2023-06-14T00:16:49;24.10;31.20
12769;DHT22;6448;48.916;8.990;2023-06-14T00:17:50;24.10;31.30
12769;DHT22;6448;48.916;8.990;2023-06-14T00:18:51;24.00;31.30
12769;DHT22;6448;48.916;8.990;2023-06-14T00:19:53;24.00;31.30
12769;DHT22;6448;48.916;8.990;2023-06-14T00:20:57;24.00;31.40
12769;DHT22;6448;48.916;8.990;2023-06-14T00:21:57;24.00;31.40
12769;DHT22;6448;48.916;8.990;2023-06-14T00:22:59;24.00;31.40
12769;DHT22;6448;48.916;8.990;2023-06-14T00:24:00;24.00;31.50
12769;DHT22;6448;48.916;8.990;2023-06-14T00:25:03;23.90;31.40
12769;DHT22;6448;48.916;8.990;2023-06-14T00:26:04;23.90;31.80
12769;DHT22;6448;48.916;8.990;2023-06-14T00:27:06;24.10;31.60
12769;DHT22;6448;48.916;8.990;2023-06-14T00:28:06;23.90;31.60
12769;DHT22;6448;48.916;8.990;2023-06-14T00:29:09;23.90;31.60
12769;DHT22;6448;48.916;8.990;2023-06-14T00:30:11;23.80;31.60
12769;DHT22;6448;48.916;8.990;2023-06-14T00:31:13;23.80;31.70
12769;DHT22;6448;48.916;8.990;2023-06-14T00:32:14;23.80;31.70
12769;DHT22;6448;48.916;8.990;2023-06-14T00:33:16;23.80;31.70
12769;DHT22;6448;48.916;8.990;2023-06-14T00:34:17;23.80;31.80
12769;DHT22;6448;48.916;8.990;2023-06-14T00:35:21;24.00;32.00
12769;DHT22;6448;48.916;8.990;2023-06-14T00:36:21;23.80;31.90
12769;DHT22;6448;48.916;8.990;2023-06-14T00:37:23;23.70;31.80
12769;DHT22;6448;48.916;8.990;2023-06-14T00:38:24;23.70;31.90
12769;DHT22;6448;48.916;8.990;2023-06-14T00:39:26;23.70;32.00
12769;DHT22;6448;48.916;8.990;2023-06-14T00:40:26;23.70;32.00
12769;DHT22;6448;48.916;8.990;2023-06-14T00:41:28;23.60;32.00
12769;DHT22;6448;48.916;8.990;2023-06-14T00:42:29;23.60;32.10
12769;DHT22;6448;48.916;8.990;2023-06-14T00:43:31;23.60;32.10
12769;DHT22;6448;48.916;8.990;2023-06-14T00:44:32;23.60;32.10
12769;DHT22;6448;48.916;8.990;2023-06-14T00:45:33;23.60;32.20
12769;DHT22;6448;48.916;8.990;2023-06-14T00:46:36;23.60;32.30
12769;DHT22;6448;48.916;8.990;2023-06-14T00:47:38;23.50;32.20
12769;DHT22;6448;48.916;8.990;2023-06-14T00:48:42;23.50;32.30
12769;DHT22;6448;48.916;8.990;2023-06-14T00:49:45;23.50;32.30
12769;DHT22;6448;48.916;8.990;2023-06-14T00:50:48;23.50;32.30
12769;DHT22;6448;48.916;8.990;2023-06-14T00:51:51;23.40;32.30
12769;DHT22;6448;48.916;8.990;2023-06-14T00:52:53;23.40;32.40
12769;DHT22;6448;48.916;8.990;2023-06-14T00:53:55;23.40;32.40
12769;DHT22;6448;48.916;8.990;2023-06-14T00:54:56;23.40;32.40
12769;DHT22;6448;48.916;8.990;2023-06-14T00:55:57;23.40;32.50
12769;DHT22;6448;48.916;8.990;2023-06-14T00:56:58;23.40;32.50
12769;DHT22;6448;48.916;8.990;2023-06-14T00:58:00;23.30;32.50
12769;DHT22;6448;48.916;8.990;2023-06-14T00:59:01;23.40;32.60
12769;DHT22;6448;48.916;8.990;2023-06-14T01:00:04;23.30;32.60
12769;DHT22;6448;48.916;8.990;2023-06-14T01:01:09;23.30;32.60
12769;DHT22;6448;48.916;8.990;2023-06-14T01:02:12;23.20;32.60
12769;DHT22;6448;48.916;8.990;2023-06-14T01:03:13;23.30;32.70
12769;DHT22;6448;48.916;8.990;2023-06-14T01:04:22;23.30;32.70
12769;DHT22;6448;48.916;8.990;2023-06-14T01:05:23;23.30;32.80
12769;DHT22;6448;48.916;8.990;2023-06-14T01:06:33;23.20;32.80
12769;DHT22;6448;48.916;8.990;2023-06-14T01:07:43;23.20;32.80
12769;DHT22;6448;48.916;8.990;2023-06-14T01:08:51;23.30;33.00
12769;DHT22;6448;48.916;8.990;2023-06-14T01:10:09;23.20;33.00
12769;DHT22;6448;48.916;8.990;2023-06-14T01:11:18;23.10;33.00
12769;DHT22;6448;48.916;8.990;2023-06-14T01:12:24;23.10;33.10
12769;DHT22;6448;48.916;8.990;2023-06-14T01:13:34;23.10;33.10
12769;DHT22;6448;48.916;8.990;2023-06-14T01:14:35;23.10;33.20
12769;DHT22;6448;48.916;8.990;2023-06-14T01:15:38;23.10;33.20
12769;DHT22;6448;48.916;8.990;2023-06-14T01:16:40;23.20;33.30
12769;DHT22;6448;48.916;8.990;2023-06-14T01:17:42;23.10;33.20
12769;DHT22;6448;48.916;8.990;2023-06-14T01:18:46;23.10;33.20
12769;DHT22;6448;48.916;8.990;2023-06-14T01:19:51;23.00;33.30
12769;DHT22;6448;48.916;8.990;2023-06-14T01:20:58;23.00;33.30
12769;DHT22;6448;48.916;8.990;2023-06-14T01:22:01;23.00;33.40
12769;DHT22;6448;48.916;8.990;2023-06-14T01:23:04;22.90;33.40
12769;DHT22;6448;48.916;8.990;2023-06-14T01:24:06;22.90;33.50
12769;DHT22;6448;48.916;8.990;2023-06-14T01:25:08;22.90;33.50
12769;DHT22;6448;48.916;8.990;2023-06-14T01:26:09;22.90;33.50
12769;DHT22;6448;48.916;8.990;2023-06-14T01:27:14;22.90;33.60
12769;DHT22;6448;48.916;8.990;2023-06-14T01:28:17;22.90;33.70
12769;DHT22;6448;48.916;8.990;2023-06-14T01:29:18;22.90;33.70
12769;DHT22;6448;48.916;8.990;2023-06-14T01:30:23;22.90;33.70
12769;DHT22;6448;48.916;8.990;2023-06-14T01:31:26;22.80;33.70
12769;DHT22;6448;48.916;8.990;2023-06-14T01:32:30;22.80;33.80
12769;DHT22;6448;48.916;8.990;2023-06-14T01:33:31;22.80;33.80
12769;DHT22;6448;48.916;8.990;2023-06-14T01:34:34;22.60;33.70
12769;DHT22;6448;48.916;8.990;2023-06-14T01:35:35;22.80;33.90
12769;DHT22;6448;48.916;8.990;2023-06-14T01:36:40;22.80;33.90
12769;DHT22;6448;48.916;8.990;2023-06-14T01:37:42;22.80;34.00
12769;DHT22;6448;48.916;8.990;2023-06-14T01:38:46;22.70;34.00
12769;DHT22;6448;48.916;8.990;2023-06-14T01:39:49;22.70;34.00
12769;DHT22;6448;48.916;8.990;2023-06-14T01:40:55;22.70;34.00
12769;DHT22;6448;48.916;8.990;2023-06-14T01:42:00;22.70;34.10
12769;DHT22;6448;48.916;8.990;2023-06-14T01:43:03;22.70;34.10
12769;DHT22;6448;48.916;8.990;2023-06-14T01:44:06;22.70;34.20
12769;DHT22;6448;48.916;8.990;2023-06-14T01:45:09;22.70;34.20
12769;DHT22;6448;48.916;8.990;2023-06-14T01:46:10;22.60;34.10
12769;DHT22;6448;48.916;8.990;2023-06-14T01:47:14;22.60;34.20
12769;DHT22;6448;48.916;8.990;2023-06-14T01:48:15;22.60;34.20
12769;DHT22;6448;48.916;8.990;2023-06-14T01:49:18;22.60;34.30
12769;DHT22;6448;48.916;8.990;2023-06-14T01:50:19;22.60;34.30
12769;DHT22;6448;48.916;8.990;2023-06-14T01:51:21;22.60;34.30
12769;DHT22;6448;48.916;8.990;2023-06-14T01:52:23;22.60;34.30
12769;DHT22;6448;48.916;8.990;2023-06-14T01:53:25;22.60;34.40
12769;DHT22;6448;48.916;8.990;2023-06-14T01:54:27;22.50;34.30
12769;DHT22;6448;48.916;8.990;2023-06-14T01:55:29;22.50;34.40
12769;DHT22;6448;48.916;8.990;2023-06-14T01:56:34;22.50;34.40
12769;DHT22;6448;48.916;8.990;2023-06-14T01:57:35;22.50;34.40
12769;DHT22;6448;48.916;8.990;2023-06-14T01:58:36;22.50;34.50
12769;DHT22;6448;48.916;8.990;2023-06-14T01:59:39;22.50;34.50
12769;DHT22;6448;48.916;8.990;2023-06-14T02:00:40;22.50;34.50
12769;DHT22;6448;48.916;8.990;2023-06-14T02:01:43;22.40;34.50
12769;DHT22;6448;48.916;8.990;2023-06-14T02:02:45;22.40;34.50
12769;DHT22;6448;48.916;8.990;2023-06-14T02:03:47;22.40;34.50
12769;DHT22;6448;48.916;8.990;2023-06-14T02:04:50;22.40;34.60
12769;DHT22;6448;48.916;8.990;2023-06-14T02:05:52;22.40;34.60
12769;DHT22;6448;48.916;8.990;2023-06-14T02:06:54;22.40;34.60
12769;DHT22;6448;48.916;8.990;2023-06-14T02:07:56;22.40;34.70
12769;DHT22;6448;48.916;8.990;2023-06-14T02:08:57;22.40;34.80
12769;DHT22;6448;48.916;8.990;2023-06-14T02:10:04;22.40;34.80
12769;DHT22;6448;48.916;8.990;2023-06-14T02:11:05;22.40;34.80
12769;DHT22;6448;48.916;8.990;2023-06-14T02:12:08;22.30;34.80
12769;DHT22;6448;48.916;8.990;2023-06-14T02:13:09;22.30;34.80
12769;DHT22;6448;48.916;8.990;2023-06-14T02:14:10;22.30;34.80
12769;DHT22;6448;48.916;8.990;2023-06-14T02:15:12;22.30;34.90
12769;DHT22;6448;48.916;8.990;2023-06-14T02:16:17;22.30;34.90
12769;DHT22;6448;48.916;8.990;2023-06-14T02:17:19;22.20;34.80
12769;DHT22;6448;48.916;8.990;2023-06-14T02:18:20;22.20;34.80
12769;DHT22;6448;48.916;8.990;2023-06-14T02:19:21;22.20;34.90
12769;DHT22;6448;48.916;8.990;2023-06-14T02:20:22;22.20;34.90
12769;DHT22;6448;48.916;8.990;2023-06-14T02:21:24;22.20;35.00
12769;DHT22;6448;48.916;8.990;2023-06-14T02:22:25;22.20;35.00
12769;DHT22;6448;48.916;8.990;2023-06-14T02:23:27;22.20;35.10
12769;DHT22;6448;48.916;8.990;2023-06-14T02:24:27;22.10;35.00
12769;DHT22;6448;48.916;8.990;2023-06-14T02:25:30;22.10;35.10
12769;DHT22;6448;48.916;8.990;2023-06-14T02:26:31;22.10;35.10
12769;DHT22;6448;48.916;8.990;2023-06-14T02:27:33;22.10;35.10
12769;DHT22;6448;48.916;8.990;2023-06-14T02:28:34;22.10;35.10
12769;DHT22;6448;48.916;8.990;2023-06-14T02:29:37;22.10;35.20
12769;DHT22;6448;48.916;8.990;2023-06-14T02:30:38;22.10;35.30
12769;DHT22;6448;48.916;8.990;2023-06-14T02:31:41;22.00;35.20
12769;DHT22;6448;48.916;8.990;2023-06-14T02:32:42;22.00;35.30
12769;DHT22;6448;48.916;8.990;2023-06-14T02:33:47;22.00;35.40
12769;DHT22;6448;48.916;8.990;2023-06-14T02:34:48;22.00;35.30
12769;DHT22;6448;48.916;8.990;2023-06-14T02:35:50;22.00;35.30
12769;DHT22;6448;48.916;8.990;2023-06-14T02:36:53;22.00;35.40
12769;DHT22;6448;48.916;8.990;2023-06-14T02:37:54;22.10;35.50
12769;DHT22;6448;48.916;8.990;2023-06-14T02:38:56;22.00;35.40
12769;DHT22;6448;48.916;8.990;2023-06-14T02:39:59;21.90;35.30
12769;DHT22;6448;48.916;8.990;2023-06-14T02:41:02;21.90;35.40
12769;DHT22;6448;48.916;8.990;2023-06-14T02:42:03;21.90;35.40
12769;DHT22;6448;48.916;8.990;2023-06-14T02:43:05;21.90;35.40
12769;DHT22;6448;48.916;8.990;2023-06-14T02:44:07;21.80;35.40
12769;DHT22;6448;48.916;8.990;2023-06-14T02:45:08;21.80;35.40
12769;DHT22;6448;48.916;8.990;2023-06-14T02:46:09;21.80;36.10
12769;DHT22;6448;48.916;8.990;2023-06-14T02:47:11;21.80;35.50
12769;DHT22;6448;48.916;8.990;2023-06-14T02:48:13;21.80;35.60
12769;DHT22;6448;48.916;8.990;2023-06-14T02:49:15;21.80;35.60
12769;DHT22;6448;48.916;8.990;2023-06-14T02:50:16;21.80;35.60
12769;DHT22;6448;48.916;8.990;2023-06-14T02:51:18;21.80;35.70
12769;DHT22;6448;48.916;8.990;2023-06-14T02:52:19;21.80;35.70
12769;DHT22;6448;48.916;8.990;2023-06-14T02:53:22;21.70;35.70
12769;DHT22;6448;48.916;8.990;2023-06-14T02:54:23;21.60;35.70
12769;DHT22;6448;48.916;8.990;2023-06-14T02:55:26;21.70;35.80
12769;DHT22;6448;48.916;8.990;2023-06-14T02:56:29;21.70;35.80
12769;DHT22;6448;48.916;8.990;2023-06-14T02:57:31;21.70;35.80
12769;DHT22;6448;48.916;8.990;2023-06-14T02:58:32;21.70;35.80
12769;DHT22;6448;48.916;8.990;2023-06-14T02:59:34;21.60;35.80
12769;DHT22;6448;48.916;8.990;2023-06-14T03:00:36;21.60;35.80
12769;DHT22;6448;48.916;8.990;2023-06-14T03:01:39;21.60;35.80
12769;DHT22;6448;48.916;8.990;2023-06-14T03:02:42;21.60;35.90
12769;DHT22;6448;48.916;8.990;2023-06-14T03:03:45;21.60;35.90
12769;DHT22;6448;48.916;8.990;2023-06-14T03:04:45;21.60;35.90
12769;DHT22;6448;48.916;8.990;2023-06-14T03:05:50;21.60;35.90
12769;DHT22;6448;48.916;8.990;2023-06-14T03:06:55;21.60;35.90
12769;DHT22;6448;48.916;8.990;2023-06-14T03:07:57;21.40;35.90
12769;DHT22;6448;48.916;8.990;2023-06-14T03:08:58;21.50;36.00
12769;DHT22;6448;48.916;8.990;2023-06-14T03:10:01;21.50;36.10
12769;DHT22;6448;48.916;8.990;2023-06-14T03:11:04;21.50;36.10
12769;DHT22;6448;48.916;8.990;2023-06-14T03:12:09;21.50;36.20
12769;DHT22;6448;48.916;8.990;2023-06-14T03:13:12;21.50;36.20
12769;DHT22;6448;48.916;8.990;2023-06-14T03:14:14;21.40;36.20
12769;DHT22;6448;48.916;8.990;2023-06-14T03:15:16;21.40;36.20
12769;DHT22;6448;48.916;8.990;2023-06-14T03:16:21;21.40;36.30
12769;DHT22;6448;48.916;8.990;2023-06-14T03:17:25;21.40;36.30
12769;DHT22;6448;48.916;8.990;2023-06-14T03:18:30;21.40;36.40
12769;DHT22;6448;48.916;8.990;2023-06-14T03:19:36;21.40;36.40
12769;DHT22;6448;48.916;8.990;2023-06-14T03:20:38;21.40;36.50
12769;DHT22;6448;48.916;8.990;2023-06-14T03:21:41;21.30;36.40
12769;DHT22;6448;48.916;8.990;2023-06-14T03:22:45;21.30;36.40
12769;DHT22;6448;48.916;8.990;2023-06-14T03:23:47;21.40;36.60
12769;DHT22;6448;48.916;8.990;2023-06-14T03:24:49;21.30;36.50
12769;DHT22;6448;48.916;8.990;2023-06-14T03:25:50;21.30;36.50
12769;DHT22;6448;48.916;8.990;2023-06-14T03:26:52;21.30;36.50
12769;DHT22;6448;48.916;8.990;2023-06-14T03:27:55;21.30;36.60
12769;DHT22;6448;48.916;8.990;2023-06-14T03:28:57;21.30;36.60
12769;DHT22;6448;48.916;8.990;2023-06-14T03:29:58;21.30;36.60
12769;DHT22;6448;48.916;8.990;2023-06-14T03:31:00;21.30;36.70
12769;DHT22;6448;48.916;8.990;2023-06-14T03:32:06;21.20;36.70
12769;DHT22;6448;48.916;8.990;2023-06-14T03:33:11;21.20;36.70
12769;DHT22;6448;48.916;8.990;2023-06-14T03:34:14;21.20;36.70
12769;DHT22;6448;48.916;8.990;2023-06-14T03:35:16;21.20;36.80
12769;DHT22;6448;48.916;8.990;2023-06-14T03:36:18;21.10;36.80
12769;DHT22;6448;48.916;8.990;2023-06-14T03:37:20;21.10;36.90
12769;DHT22;6448;48.916;8.990;2023-06-14T03:38:22;21.10;36.80
12769;DHT22;6448;48.916;8.990;2023-06-14T03:39:25;21.10;36.90
12769;DHT22;6448;48.916;8.990;2023-06-14T03:40:26;21.10;37.00
12769;DHT22;6448;48.916;8.990;2023-06-14T03:41:34;21.10;37.00
12769;DHT22;6448;48.916;8.990;2023-06-14T03:42:38;21.10;37.00
12769;DHT22;6448;48.916;8.990;2023-06-14T03:43:41;21.00;37.00
12769;DHT22;6448;48.916;8.990;2023-06-14T03:44:42;21.00;37.00
12769;DHT22;6448;48.916;8.990;2023-06-14T03:45:45;21.30;37.10
12769;DHT22;6448;48.916;8.990;2023-06-14T03:46:46;21.00;37.00
12769;DHT22;6448;48.916;8.990;2023-06-14T03:47:48;21.10;37.10
12769;DHT22;6448;48.916;8.990;2023-06-14T03:48:49;21.00;37.00
12769;DHT22;6448;48.916;8.990;2023-06-14T03:49:52;21.00;37.00
12769;DHT22;6448;48.916;8.990;2023-06-14T03:50:53;21.00;37.00
12769;DHT22;6448;48.916;8.990;2023-06-14T03:51:55;21.20;37.10
12769;DHT22;6448;48.916;8.990;2023-06-14T03:52:58;21.00;37.10
12769;DHT22;6448;48.916;8.990;2023-06-14T03:54:02;21.20;37.30
12769;DHT22;6448;48.916;8.990;2023-06-14T03:55:03;21.00;37.20
12769;DHT22;6448;48.916;8.990;2023-06-14T03:56:07;20.90;37.20
12769;DHT22;6448;48.916;8.990;2023-06-14T03:57:14;20.90;37.30
12769;DHT22;6448;48.916;8.990;2023-06-14T03:58:17;20.90;37.30
12769;DHT22;6448;48.916;8.990;2023-06-14T03:59:21;20.90;37.40
12769;DHT22;6448;48.916;8.990;2023-06-14T04:00:23;20.90;37.40
12769;DHT22;6448;48.916;8.990;2023-06-14T04:01:24;20.90;37.50
12769;DHT22;6448;48.916;8.990;2023-06-14T04:02:28;20.80;37.50
12769;DHT22;6448;48.916;8.990;2023-06-14T04:03:29;20.90;37.70
12769;DHT22;6448;48.916;8.990;2023-06-14T04:04:31;20.90;37.70
12769;DHT22;6448;48.916;8.990;2023-06-14T04:05:33;20.80;37.70
12769;DHT22;6448;48.916;8.990;2023-06-14T04:06:35;20.80;37.70
12769;DHT22;6448;48.916;8.990;2023-06-14T04:07:36;21.00;38.00
12769;DHT22;6448;48.916;8.990;2023-06-14T04:08:40;20.80;37.90
12769;DHT22;6448;48.916;8.990;2023-06-14T04:09:42;20.80;38.00
12769;DHT22;6448;48.916;8.990;2023-06-14T04:10:44;20.80;38.00
12769;DHT22;6448;48.916;8.990;2023-06-14T04:11:45;20.80;38.00
12769;DHT22;6448;48.916;8.990;2023-06-14T04:12:47;20.80;38.10
12769;DHT22;6448;48.916;8.990;2023-06-14T04:13:47;20.80;38.20
12769;DHT22;6448;48.916;8.990;2023-06-14T04:14:51;20.90;38.40
12769;DHT22;6448;48.916;8.990;2023-06-14T04:15:51;20.90;38.40
12769;DHT22;6448;48.916;8.990;2023-06-14T04:16:59;20.80;38.30
12769;DHT22;6448;48.916;8.990;2023-06-14T04:18:00;20.90;38.40
12769;DHT22;6448;48.916;8.990;2023-06-14T04:19:02;20.60;38.40
12769;DHT22;6448;48.916;8.990;2023-06-14T04:20:04;20.80;38.40
12769;DHT22;6448;48.916;8.990;2023-06-14T04:21:07;20.70;38.50
12769;DHT22;6448;48.916;8.990;2023-06-14T04:22:09;20.70;38.60
12769;DHT22;6448;48.916;8.990;2023-06-14T04:23:12;20.80;38.70
12769;DHT22;6448;48.916;8.990;2023-06-14T04:24:13;20.80;38.80
12769;DHT22;6448;48.916;8.990;2023-06-14T04:25:16;20.70;38.80
12769;DHT22;6448;48.916;8.990;2023-06-14T04:26:19;20.70;38.90
12769;DHT22;6448;48.916;8.990;2023-06-14T04:27:21;20.90;39.00
12769;DHT22;6448;48.916;8.990;2023-06-14T04:28:25;20.70;39.00
12769;DHT22;6448;48.916;8.990;2023-06-14T04:29:30;20.60;38.90
12769;DHT22;6448;48.916;8.990;2023-06-14T04:30:37;20.70;39.00
12769;DHT22;6448;48.916;8.990;2023-06-14T04:31:41;20.60;39.00
12769;DHT22;6448;48.916;8.990;2023-06-14T04:32:44;20.60;38.90
12769;DHT22;6448;48.916;8.990;2023-06-14T04:33:47;20.60;39.60
12769;DHT22;6448;48.916;8.990;2023-06-14T04:34:52;20.60;38.90
12769;DHT22;6448;48.916;8.990;2023-06-14T04:35:54;20.60;39.00
12769;DHT22;6448;48.916;8.990;2023-06-14T04:36:57;20.60;39.10
12769;DHT22;6448;48.916;8.990;2023-06-14T04:38:05;20.60;39.00
12769;DHT22;6448;48.916;8.990;2023-06-14T04:39:09;20.60;39.00
12769;DHT22;6448;48.916;8.990;2023-06-14T04:40:11;20.60;39.00
12769;DHT22;6448;48.916;8.990;2023-06-14T04:41:13;20.60;39.00
12769;DHT22;6448;48.916;8.990;2023-06-14T04:42:17;20.80;39.00
12769;DHT22;6448;48.916;8.990;2023-06-14T04:43:20;20.60;38.90
12769;DHT22;6448;48.916;8.990;2023-06-14T04:44:30;20.70;38.90
12769;DHT22;6448;48.916;8.990;2023-06-14T04:45:33;20.70;38.90
12769;DHT22;6448;48.916;8.990;2023-06-14T04:46:38;20.70;38.90
12769;DHT22;6448;48.916;8.990;2023-06-14T04:47:48;20.60;38.90
12769;DHT22;6448;48.916;8.990;2023-06-14T04:48:51;20.70;39.00
12769;DHT22;6448;48.916;8.990;2023-06-14T04:49:52;20.70;39.00
12769;DHT22;6448;48.916;8.990;2023-06-14T04:50:56;20.70;39.10
12769;DHT22;6448;48.916;8.990;2023-06-14T04:51:57;20.70;39.10
12769;DHT22;6448;48.916;8.990;2023-06-14T04:53:01;20.60;39.10
12769;DHT22;6448;48.916;8.990;2023-06-14T04:54:03;20.70;39.20
12769;DHT22;6448;48.916;8.990;2023-06-14T04:55:06;20.70;39.20
12769;DHT22;6448;48.916;8.990;2023-06-14T04:56:07;20.70;39.30
12769;DHT22;6448;48.916;8.990;2023-06-14T04:57:10;20.80;39.40
12769;DHT22;6448;48.916;8.990;2023-06-14T04:58:14;20.80;39.40
12769;DHT22;6448;48.916;8.990;2023-06-14T04:59:16;20.70;39.40
12769;DHT22;6448;48.916;8.990;2023-06-14T05:00:18;20.70;39.40
12769;DHT22;6448;48.916;8.990;2023-06-14T05:01:20;20.70;39.40
12769;DHT22;6448;48.916;8.990;2023-06-14T05:02:23;20.70;39.40
12769;DHT22;6448;48.916;8.990;2023-06-14T05:03:26;20.70;39.40
12769;DHT22;6448;48.916;8.990;2023-06-14T05:04:28;20.70;39.40
12769;DHT22;6448;48.916;8.990;2023-06-14T05:05:31;20.70;39.40
12769;DHT22;6448;48.916;8.990;2023-06-14T05:06:34;20.80;39.50
12769;DHT22;6448;48.916;8.990;2023-06-14T05:07:36;20.70;39.50
12769;DHT22;6448;48.916;8.990;2023-06-14T05:08:37;20.70;39.60
12769;DHT22;6448;48.916;8.990;2023-06-14T05:09:39;20.80;39.90
12769;DHT22;6448;48.916;8.990;2023-06-14T05:10:40;20.80;40.10
12769;DHT22;6448;48.916;8.990;2023-06-14T05:11:42;20.80;40.20
12769;DHT22;6448;48.916;8.990;2023-06-14T05:12:44;20.80;40.20
12769;DHT22;6448;48.916;8.990;2023-06-14T05:13:48;20.80;40.10
12769;DHT22;6448;48.916;8.990;2023-06-14T05:14:49;21.00;40.20
12769;DHT22;6448;48.916;8.990;2023-06-14T05:15:53;20.80;40.10
12769;DHT22;6448;48.916;8.990;2023-06-14T05:16:54;21.00;40.50
12769;DHT22;6448;48.916;8.990;2023-06-14T05:17:57;20.80;40.50
12769;DHT22;6448;48.916;8.990;2023-06-14T05:18:58;20.80;40.50
12769;DHT22;6448;48.916;8.990;2023-06-14T05:19:59;20.80;40.40
12769;DHT22;6448;48.916;8.990;2023-06-14T05:21:00;20.80;40.30
12769;DHT22;6448;48.916;8.990;2023-06-14T05:22:02;20.70;40.30
12769;DHT22;6448;48.916;8.990;2023-06-14T05:23:03;20.90;40.40
12769;DHT22;6448;48.916;8.990;2023-06-14T05:24:05;20.80;40.30
12769;DHT22;6448;48.916;8.990;2023-06-14T05:25:07;20.90;40.40
12769;DHT22;6448;48.916;8.990;2023-06-14T05:26:09;20.90;40.40
12769;DHT22;6448;48.916;8.990;2023-06-14T05:27:10;20.90;40.40
12769;DHT22;6448;48.916;8.990;2023-06-14T05:28:12;20.90;40.40
12769;DHT22;6448;48.916;8.990;2023-06-14T05:29:13;20.90;40.40
12769;DHT22;6448;48.916;8.990;2023-06-14T05:30:16;21.10;40.60
12769;DHT22;6448;48.916;8.990;2023-06-14T05:31:18;20.90;40.60
12769;DHT22;6448;48.916;8.990;2023-06-14T05:32:19;21.00;40.60
12769;DHT22;6448;48.916;8.990;2023-06-14T05:33:22;21.00;40.70
12769;DHT22;6448;48.916;8.990;2023-06-14T05:34:23;21.00;40.70
12769;DHT22;6448;48.916;8.990;2023-06-14T05:35:25;21.10;40.70
12769;DHT22;6448;48.916;8.990;2023-06-14T05:36:27;21.00;40.70
12769;DHT22;6448;48.916;8.990;2023-06-14T05:37:28;21.00;40.70
12769;DHT22;6448;48.916;8.990;2023-06-14T05:38:29;21.00;40.70
12769;DHT22;6448;48.916;8.990;2023-06-14T05:39:31;21.00;40.70
12769;DHT22;6448;48.916;8.990;2023-06-14T05:40:32;21.00;40.70
12769;DHT22;6448;48.916;8.990;2023-06-14T05:41:33;20.90;40.60
12769;DHT22;6448;48.916;8.990;2023-06-14T05:42:35;21.20;40.70
12769;DHT22;6448;48.916;8.990;2023-06-14T05:43:36;21.00;40.70
12769;DHT22;6448;48.916;8.990;2023-06-14T05:44:38;20.90;40.70
12769;DHT22;6448;48.916;8.990;2023-06-14T05:45:38;21.10;40.80
12769;DHT22;6448;48.916;8.990;2023-06-14T05:46:40;21.10;40.80
12769;DHT22;6448;48.916;8.990;2023-06-14T05:47:41;21.10;40.80
12769;DHT22;6448;48.916;8.990;2023-06-14T05:48:44;21.00;40.80
12769;DHT22;6448;48.916;8.990;2023-06-14T05:49:45;21.10;41.00
12769;DHT22;6448;48.916;8.990;2023-06-14T05:50:47;21.10;41.00
12769;DHT22;6448;48.916;8.990;2023-06-14T05:51:48;21.10;41.00
12769;DHT22;6448;48.916;8.990;2023-06-14T05:52:50;21.10;41.00
12769;DHT22;6448;48.916;8.990;2023-06-14T05:53:51;21.10;41.00
12769;DHT22;6448;48.916;8.990;2023-06-14T05:54:52;21.10;41.00
12769;DHT22;6448;48.916;8.990;2023-06-14T05:55:53;21.20;41.00
12769;DHT22;6448;48.916;8.990;2023-06-14T05:56:55;21.10;40.90
12769;DHT22;6448;48.916;8.990;2023-06-14T05:57:56;21.10;40.90
12769;DHT22;6448;48.916;8.990;2023-06-14T05:58:58;21.10;40.90
12769;DHT22;6448;48.916;8.990;2023-06-14T05:59:58;21.20;41.00
12769;DHT22;6448;48.916;8.990;2023-06-14T06:01:00;21.10;41.00
12769;DHT22;6448;48.916;8.990;2023-06-14T06:02:01;21.40;41.10
12769;DHT22;6448;48.916;8.990;2023-06-14T06:03:03;21.10;40.90
12769;DHT22;6448;48.916;8.990;2023-06-14T06:04:05;21.20;40.80
12769;DHT22;6448;48.916;8.990;2023-06-14T06:05:08;21.20;40.80
12769;DHT22;6448;48.916;8.990;2023-06-14T06:06:09;21.20;41.00
12769;DHT22;6448;48.916;8.990;2023-06-14T06:07:10;21.20;40.80
12769;DHT22;6448;48.916;8.990;2023-06-14T06:08:11;21.20;40.70
12769;DHT22;6448;48.916;8.990;2023-06-14T06:09:14;21.30;40.90
12769;DHT22;6448;48.916;8.990;2023-06-14T06:10:14;21.30;40.90
12769;DHT22;6448;48.916;8.990;2023-06-14T06:11:16;21.30;41.00
12769;DHT22;6448;48.916;8.990;2023-06-14T06:12:17;21.30;41.10
12769;DHT22;6448;48.916;8.990;2023-06-14T06:13:19;21.30;41.10
12769;DHT22;6448;48.916;8.990;2023-06-14T06:14:20;21.40;41.20
12769;DHT22;6448;48.916;8.990;2023-06-14T06:15:21;21.30;41.00
12769;DHT22;6448;48.916;8.990;2023-06-14T06:16:22;21.40;41.00
12769;DHT22;6448;48.916;8.990;2023-06-14T06:17:24;21.40;41.10
12769;DHT22;6448;48.916;8.990;2023-06-14T06:18:25;21.60;41.20
12769;DHT22;6448;48.916;8.990;2023-06-14T06:19:28;21.40;41.20
12769;DHT22;6448;48.916;8.990;2023-06-14T06:20:29;21.50;41.20
12769;DHT22;6448;48.916;8.990;2023-06-14T06:21:32;21.50;41.10
12769;DHT22;6448;48.916;8.990;2023-06-14T06:22:32;21.50;41.00
12769;DHT22;6448;48.916;8.990;2023-06-14T06:23:34;21.50;41.00
12769;DHT22;6448;48.916;8.990;2023-06-14T06:24:36;21.60;41.10
12769;DHT22;6448;48.916;8.990;2023-06-14T06:25:37;21.60;41.10
12769;DHT22;6448;48.916;8.990;2023-06-14T06:26:38;21.60;41.00
12769;DHT22;6448;48.916;8.990;2023-06-14T06:27:40;21.60;41.00
12769;DHT22;6448;48.916;8.990;2023-06-14T06:28:42;21.60;40.90
12769;DHT22;6448;48.916;8.990;2023-06-14T06:29:42;21.70;40.80
12769;DHT22;6448;48.916;8.990;2023-06-14T06:30:45;21.70;40.80
12769;DHT22;6448;48.916;8.990;2023-06-14T06:31:46;21.70;40.80
12769;DHT22;6448;48.916;8.990;2023-06-14T06:32:48;21.70;40.70
12769;DHT22;6448;48.916;8.990;2023-06-14T06:33:49;21.70;40.60
12769;DHT22;6448;48.916;8.990;2023-06-14T06:34:52;21.70;40.70
12769;DHT22;6448;48.916;8.990;2023-06-14T06:35:52;21.70;40.70
12769;DHT22;6448;48.916;8.990;2023-06-14T06:36:54;21.80;41.00
12769;DHT22;6448;48.916;8.990;2023-06-14T06:37:55;21.80;40.90
12769;DHT22;6448;48.916;8.990;2023-06-14T06:38:57;21.80;40.80
12769;DHT22;6448;48.916;8.990;2023-06-14T06:39:59;21.80;40.70